createdAt,value
2022-11-14T00:01:20.228Z,9.77
2022-11-14T00:03:58.940Z,10.30
2022-11-14T00:06:25.757Z,9.98
2022-11-14T00:08:52.462Z,9.57
2022-11-14T00:11:19.153Z,8.82
2022-11-14T00:13:45.688Z,7.80
2022-11-14T00:16:12.385Z,10.27
2022-11-14T00:18:38.971Z,9.20
2022-11-14T00:21:06.470Z,8.63
2022-11-14T00:23:33.003Z,9.05
2022-11-14T00:25:59.567Z,9.68
2022-11-14T00:28:26.270Z,10.40
2022-11-14T00:30:52.906Z,11.27
2022-11-14T00:33:25.176Z,11.10
2022-11-14T00:35:58.572Z,10.85
2022-11-14T00:38:27.580Z,10.35
2022-11-14T00:40:54.406Z,11.50
2022-11-14T00:43:23.985Z,9.93
2022-11-14T00:45:50.553Z,8.82
2022-11-14T00:48:17.398Z,9.52
2022-11-14T00:50:44.454Z,9.00
2022-11-14T00:53:14.969Z,9.02
2022-11-14T00:55:46.010Z,8.80
2022-11-14T00:58:15.322Z,7.35
2022-11-14T01:00:41.951Z,9.13
2022-11-14T01:03:08.666Z,9.02
2022-11-14T01:05:43.200Z,9.80
2022-11-14T01:10:45.897Z,10.63
2022-11-14T01:13:13.328Z,8.88
2022-11-14T01:15:48.805Z,9.27
2022-11-14T01:18:19.441Z,10.60
2022-11-14T01:20:49.958Z,10.90
2022-11-14T01:23:17.747Z,11.35
2022-11-14T01:25:44.486Z,11.43
2022-11-14T01:28:16.632Z,10.95
2022-11-14T01:30:46.032Z,14.25
2022-11-14T01:33:12.597Z,14.15
2022-11-14T01:35:39.207Z,15.35
2022-11-14T01:38:06.460Z,15.45
2022-11-14T01:40:33.365Z,13.02
2022-11-14T01:43:18.241Z,13.90
2022-11-14T01:51:23.894Z,11.15
2022-11-14T01:53:53.263Z,10.48
2022-11-14T01:56:27.992Z,12.93
2022-11-14T01:59:05.114Z,13.75
2022-11-14T02:01:35.694Z,12.15
2022-11-14T02:04:06.656Z,15.20
2022-11-14T02:06:42.502Z,16.15
2022-11-14T02:09:09.583Z,15.23
2022-11-14T02:11:41.656Z,17.25
2022-11-14T02:14:12.369Z,15.60
2022-11-14T02:16:41.219Z,13.32
2022-11-14T02:19:10.861Z,13.30
2022-11-14T02:21:37.761Z,13.13
2022-11-14T02:24:09.138Z,13.38
2022-11-14T02:26:36.880Z,13.13
2022-11-14T02:29:05.182Z,13.10
2022-11-14T02:31:32.497Z,11.77
2022-11-14T02:33:59.319Z,13.68
2022-11-14T02:36:27.997Z,12.02
2022-11-14T02:38:59.428Z,14.38
2022-11-14T02:41:26.095Z,16.27
2022-11-14T02:43:53.535Z,16.92
2022-11-14T02:46:20.161Z,16.60
2022-11-14T02:48:47.022Z,15.77
2022-11-14T02:51:16.402Z,14.15
2022-11-14T02:53:46.121Z,16.35
2022-11-14T02:56:12.702Z,14.30
2022-11-14T02:58:39.295Z,14.73
2022-11-14T03:01:20.209Z,14.50
2022-11-14T03:03:47.924Z,13.10
2022-11-14T03:06:14.718Z,14.32
2022-11-14T03:08:41.269Z,14.00
2022-11-14T03:11:09.432Z,15.32
2022-11-14T03:13:36.858Z,15.30
2022-11-14T03:16:07.504Z,14.40
2022-11-14T03:18:46.721Z,13.80
2022-11-14T03:21:19.606Z,13.88
2022-11-14T03:23:46.303Z,14.35
2022-11-14T03:26:14.653Z,13.25
2022-11-14T03:28:41.965Z,12.90
2022-11-14T03:31:11.693Z,14.00
2022-11-14T03:33:42.919Z,15.57
2022-11-14T03:36:09.786Z,14.55
2022-11-14T03:38:36.546Z,13.27
2022-11-14T03:41:03.302Z,15.68
2022-11-14T03:43:34.022Z,15.38
2022-11-14T03:46:02.090Z,14.77
2022-11-14T03:48:30.051Z,14.45
2022-11-14T03:51:06.679Z,15.95
2022-11-14T03:53:33.326Z,16.33
2022-11-14T03:55:59.889Z,15.70
2022-11-14T03:58:31.976Z,18.02
2022-11-14T04:00:59.253Z,15.55
2022-11-14T04:03:29.318Z,16.15
2022-11-14T04:06:01.459Z,15.95
2022-11-14T04:08:28.297Z,14.75
2022-11-14T04:10:55.189Z,13.07
2022-11-14T04:13:24.799Z,15.25
2022-11-14T04:16:00.309Z,13.77
2022-11-14T04:18:28.077Z,14.18
2022-11-14T04:20:55.018Z,15.93
2022-11-14T04:23:30.601Z,14.85
2022-11-14T04:26:01.753Z,14.57
2022-11-14T04:28:28.898Z,16.60
2022-11-14T04:30:58.602Z,17.15
2022-11-14T04:33:28.308Z,15.60
2022-11-14T04:35:55.087Z,17.42
2022-11-14T04:38:24.333Z,16.73
2022-11-14T04:40:54.661Z,17.00
2022-11-14T04:43:21.507Z,17.17
2022-11-14T04:45:50.911Z,16.00
2022-11-14T04:48:17.445Z,18.88
2022-11-14T04:50:45.922Z,17.73
2022-11-14T04:53:12.639Z,17.83
2022-11-14T04:55:39.195Z,18.23
2022-11-14T04:58:05.761Z,15.38
2022-11-14T05:00:32.330Z,15.07
2022-11-14T05:02:59.621Z,16.55
2022-11-14T05:05:35.953Z,17.88
2022-11-14T05:08:05.996Z,17.00
2022-11-14T05:10:35.054Z,21.40
2022-11-14T05:13:01.845Z,18.63
2022-11-14T05:15:28.429Z,17.38
2022-11-14T05:17:57.702Z,17.98
2022-11-14T05:20:24.252Z,16.50
2022-11-14T05:22:54.414Z,16.67
2022-11-14T05:25:21.489Z,16.73
2022-11-14T05:27:48.741Z,19.05
2022-11-14T05:30:16.073Z,20.05
2022-11-14T05:32:45.942Z,16.85
2022-11-14T05:35:18.389Z,21.48
2022-11-14T05:37:48.811Z,20.48
2022-11-14T05:40:15.614Z,18.58
2022-11-14T05:42:45.093Z,19.02
2022-11-14T05:45:11.655Z,20.42
2022-11-14T05:47:44.394Z,19.00
2022-11-14T05:50:16.448Z,20.20
2022-11-14T05:52:43.061Z,17.50
2022-11-14T05:55:14.685Z,21.42
2022-11-14T05:57:41.794Z,20.55
2022-11-14T06:00:14.494Z,17.60
2022-11-14T06:02:41.223Z,16.42
2022-11-14T06:05:08.075Z,18.88
2022-11-14T06:07:34.737Z,18.27
2022-11-14T06:10:01.432Z,20.05
2022-11-14T06:12:27.964Z,23.75
2022-11-14T06:15:00.162Z,23.83
2022-11-14T06:17:39.492Z,21.33
2022-11-14T06:20:06.689Z,18.75
2022-11-14T06:22:37.000Z,22.27
2022-11-14T06:25:03.692Z,20.55
2022-11-14T06:27:30.325Z,24.63
2022-11-14T06:29:58.064Z,20.95
2022-11-14T06:32:24.752Z,25.95
2022-11-14T06:34:51.676Z,30.67
2022-11-14T06:37:18.247Z,24.15
2022-11-14T06:39:56.853Z,25.38
2022-11-14T06:42:23.797Z,22.65
2022-11-14T06:44:53.442Z,17.77
2022-11-14T06:47:20.489Z,20.48
2022-11-14T06:49:47.036Z,21.95
2022-11-14T06:52:14.154Z,23.35
2022-11-14T06:54:43.256Z,25.20
2022-11-14T06:57:09.825Z,28.48
2022-11-14T06:59:36.407Z,26.70
2022-11-14T07:02:03.076Z,29.08
2022-11-14T07:04:33.926Z,26.92
2022-11-14T07:07:00.545Z,28.88
2022-11-14T07:09:30.428Z,27.98
2022-11-14T07:12:02.654Z,29.60
2022-11-14T07:14:29.220Z,27.73
2022-11-14T07:16:58.465Z,28.42
2022-11-14T07:22:05.663Z,29.15
2022-11-14T07:24:32.195Z,27.13
2022-11-14T07:27:01.533Z,26.23
2022-11-14T07:29:32.940Z,25.35
2022-11-14T07:32:02.276Z,27.52
2022-11-14T07:34:41.449Z,27.60
2022-11-14T07:37:10.962Z,26.77
2022-11-14T07:39:37.512Z,24.60
2022-11-14T07:42:07.016Z,29.02
2022-11-14T07:44:33.545Z,30.08
2022-11-14T07:47:00.175Z,28.75
2022-11-14T07:49:33.206Z,30.15
2022-11-14T07:52:00.841Z,27.48
2022-11-14T07:54:27.684Z,26.33
2022-11-14T07:57:00.063Z,29.13
2022-11-14T07:59:31.913Z,28.35
2022-11-14T08:01:58.465Z,30.30
2022-11-14T08:04:25.075Z,30.50
2022-11-14T08:06:57.293Z,27.42
2022-11-14T08:09:30.732Z,28.13
2022-11-14T08:11:59.152Z,27.77
2022-11-14T08:14:28.031Z,27.85
2022-11-14T08:16:54.805Z,27.38
2022-11-14T08:19:32.957Z,28.40
2022-11-14T08:21:59.641Z,27.77
2022-11-14T08:24:26.213Z,24.92
2022-11-14T08:26:52.921Z,24.77
2022-11-14T08:29:19.515Z,28.33
2022-11-14T08:31:54.537Z,26.42
2022-11-14T08:34:26.198Z,26.67
2022-11-14T08:36:52.830Z,25.13
2022-11-14T08:39:19.388Z,26.80
2022-11-14T08:41:45.926Z,27.05
2022-11-14T08:44:18.409Z,30.10
2022-11-14T08:47:01.619Z,27.92
2022-11-14T08:49:28.376Z,25.38
2022-11-14T08:51:55.104Z,26.50
2022-11-14T08:54:29.501Z,26.73
2022-11-14T08:56:56.216Z,27.40
2022-11-14T09:01:54.171Z,26.30
2022-11-14T09:04:20.915Z,26.83
2022-11-14T09:06:47.652Z,26.85
2022-11-14T09:09:14.328Z,26.80
2022-11-14T09:11:47.225Z,26.05
2022-11-14T09:14:18.710Z,27.65
2022-11-14T09:16:47.906Z,25.75
2022-11-14T09:19:14.467Z,25.63
2022-11-14T09:21:41.569Z,23.77
2022-11-14T09:24:08.304Z,24.02
2022-11-14T09:26:34.931Z,24.15
2022-11-14T09:29:12.532Z,21.30
2022-11-14T09:31:39.182Z,24.48
2022-11-14T09:34:05.848Z,24.10
2022-11-14T09:36:32.477Z,21.63
2022-11-14T09:38:59.027Z,21.63
2022-11-14T09:41:34.651Z,22.90
2022-11-14T09:44:26.350Z,21.38
2022-11-14T09:46:59.173Z,22.65
2022-11-14T09:49:38.218Z,23.13
2022-11-14T09:52:49.419Z,23.25
2022-11-14T09:55:36.859Z,21.55
2022-11-14T09:58:05.200Z,20.80
2022-11-14T10:01:09.544Z,21.67
2022-11-14T10:03:51.309Z,20.63
2022-11-14T10:06:32.121Z,18.80
2022-11-14T10:09:30.693Z,17.23
2022-11-14T10:12:10.982Z,18.30
2022-11-14T10:15:01.625Z,19.67
2022-11-14T10:17:39.238Z,21.25
2022-11-14T10:20:35.487Z,20.65
2022-11-14T10:23:23.056Z,19.98
2022-11-14T10:26:14.736Z,18.92
2022-11-14T10:29:23.095Z,20.30
2022-11-14T10:31:58.467Z,18.90
2022-11-14T10:34:42.777Z,17.73
2022-11-14T10:37:44.742Z,15.27
2022-11-14T10:40:31.509Z,16.23
2022-11-14T10:43:03.695Z,14.70
2022-11-14T10:45:37.675Z,16.13
2022-11-14T10:48:28.865Z,17.75
2022-11-14T10:50:59.368Z,15.70
2022-11-14T10:54:09.183Z,19.50
2022-11-14T10:56:46.586Z,19.33
2022-11-14T10:59:14.138Z,18.50
2022-11-14T11:01:45.135Z,18.02
2022-11-14T11:04:35.938Z,16.70
2022-11-14T11:07:08.904Z,15.75
2022-11-14T11:09:52.421Z,15.43
2022-11-14T11:12:21.729Z,18.08
2022-11-14T11:15:10.004Z,16.45
2022-11-14T11:17:42.795Z,18.60
2022-11-14T11:20:27.484Z,18.85
2022-11-14T11:23:18.605Z,20.05
2022-11-14T11:25:45.235Z,17.48
2022-11-14T11:28:24.219Z,18.40
2022-11-14T11:31:02.623Z,20.52
2022-11-14T11:33:36.117Z,19.75
2022-11-14T11:36:12.627Z,20.67
2022-11-14T11:38:40.773Z,22.40
2022-11-14T11:42:02.316Z,21.67
2022-11-14T11:44:12.912Z,23.30
2022-11-14T11:46:52.875Z,23.65
2022-11-14T11:49:40.223Z,22.17
2022-11-14T11:52:21.875Z,21.40
2022-11-14T11:55:16.223Z,20.55
2022-11-14T11:57:51.748Z,20.90
2022-11-14T12:00:21.124Z,21.58
2022-11-14T12:02:53.771Z,21.10
2022-11-14T12:05:53.921Z,22.45
2022-11-14T12:08:40.341Z,23.00
2022-11-14T12:11:18.251Z,22.02
2022-11-14T12:14:29.278Z,22.77
2022-11-14T12:17:17.731Z,23.73
2022-11-14T12:20:05.735Z,22.05
2022-11-14T12:23:06.159Z,22.55
2022-11-14T12:26:02.183Z,22.95
2022-11-14T12:28:39.407Z,23.10
2022-11-14T12:31:13.139Z,22.23
2022-11-14T12:34:01.915Z,22.63
2022-11-14T12:36:34.629Z,23.90
2022-11-14T12:39:02.187Z,22.63
2022-11-14T12:41:34.781Z,21.42
2022-11-14T12:44:27.830Z,22.70
2022-11-14T12:47:06.888Z,22.70
2022-11-14T12:49:40.030Z,22.42
2022-11-14T12:52:53.223Z,22.95
2022-11-14T12:55:26.169Z,22.08
2022-11-14T12:58:14.119Z,22.42
2022-11-14T13:00:46.913Z,20.80
2022-11-14T13:03:36.426Z,21.88
2022-11-14T13:06:02.941Z,22.08
2022-11-14T13:08:56.519Z,21.60
2022-11-14T13:11:46.938Z,23.10
2022-11-14T13:14:13.711Z,21.83
2022-11-14T13:16:40.291Z,21.90
2022-11-14T13:19:30.916Z,22.15
2022-11-14T13:22:12.580Z,23.08
2022-11-14T13:25:11.491Z,21.95
2022-11-14T13:28:06.459Z,21.15
2022-11-14T13:31:09.103Z,22.48
2022-11-14T13:33:45.904Z,22.45
2022-11-14T13:36:46.787Z,21.40
2022-11-14T13:39:34.620Z,22.88
2022-11-14T13:42:14.979Z,23.27
2022-11-14T13:45:16.033Z,25.38
2022-11-14T13:48:06.184Z,23.80
2022-11-14T13:50:38.134Z,24.20
2022-11-14T13:53:14.207Z,22.23
2022-11-14T13:56:01.465Z,24.38
2022-11-14T13:58:53.177Z,20.77
2022-11-14T14:01:29.274Z,22.90
2022-11-14T14:04:19.845Z,21.67
2022-11-14T14:07:15.216Z,22.17
2022-11-14T14:10:03.331Z,22.48
2022-11-14T14:12:41.555Z,22.17
2022-11-14T14:15:41.524Z,22.45
2022-11-14T14:18:20.957Z,22.00
2022-11-14T14:20:59.153Z,22.58
2022-11-14T14:23:40.642Z,23.20
2022-11-14T14:26:56.133Z,22.30
2022-11-14T14:29:50.527Z,23.15
2022-11-14T14:32:20.349Z,20.90
2022-11-14T14:34:47.357Z,21.30
2022-11-14T14:37:29.649Z,21.33
2022-11-14T14:40:08.078Z,21.83
2022-11-14T14:42:40.551Z,23.02
2022-11-14T14:45:16.759Z,22.75
2022-11-14T14:47:53.257Z,21.92
2022-11-14T14:50:40.486Z,22.40
2022-11-14T14:53:07.950Z,21.23
2022-11-14T14:55:36.219Z,22.58
2022-11-14T15:01:26.268Z,22.13
2022-11-14T15:03:58.257Z,20.80
2022-11-14T15:06:38.316Z,23.63
2022-11-14T15:09:17.860Z,23.98
2022-11-14T15:11:47.773Z,23.60
2022-11-14T15:14:18.297Z,24.23
2022-11-14T15:16:46.577Z,20.85
2022-11-14T15:19:22.245Z,23.63
2022-11-14T15:22:13.220Z,22.73
2022-11-14T15:25:23.259Z,22.77
2022-11-14T15:27:53.860Z,23.92
2022-11-14T15:30:34.569Z,22.60
2022-11-14T15:33:03.311Z,20.52
2022-11-14T15:35:35.628Z,20.30
2022-11-14T15:38:42.095Z,21.40
2022-11-14T15:41:19.846Z,21.88
2022-11-14T15:43:47.472Z,19.95
2022-11-14T15:46:32.362Z,24.40
2022-11-14T15:51:51.492Z,22.88
2022-11-14T15:54:23.692Z,25.58
2022-11-14T15:56:52.765Z,26.52
2022-11-14T15:59:22.307Z,25.77
2022-11-14T16:01:54.312Z,25.42
2022-11-14T16:04:26.059Z,25.88
2022-11-14T16:06:52.702Z,26.33
2022-11-14T16:09:24.227Z,27.35
2022-11-14T16:11:53.311Z,27.40
2022-11-14T16:14:20.793Z,24.48
2022-11-14T16:16:47.349Z,27.45
2022-11-14T16:19:15.880Z,28.27
2022-11-14T16:21:44.926Z,25.48
2022-11-14T16:24:16.082Z,26.73
2022-11-14T16:26:42.784Z,28.63
2022-11-14T16:29:10.053Z,26.75
2022-11-14T16:31:36.979Z,26.52
2022-11-14T16:34:03.568Z,27.20
2022-11-14T16:36:30.238Z,25.60
2022-11-14T16:39:02.070Z,27.50
2022-11-14T16:41:28.942Z,27.75
2022-11-14T16:43:57.218Z,28.42
2022-11-14T16:46:24.573Z,26.52
2022-11-14T16:48:54.910Z,28.88
2022-11-14T16:51:46.705Z,27.73
2022-11-14T16:54:10.945Z,27.73
2022-11-14T16:56:38.364Z,26.67
2022-11-14T16:59:05.461Z,27.67
2022-11-14T17:01:32.214Z,27.40
2022-11-14T17:03:58.797Z,25.13
2022-11-14T17:06:25.856Z,27.83
2022-11-14T17:08:56.892Z,28.48
2022-11-14T17:11:24.826Z,26.10
2022-11-14T17:13:56.517Z,28.80
2022-11-14T17:16:23.862Z,28.30
2022-11-14T17:19:01.312Z,29.95
